createdAt,value
2019-05-29T04:53:45.218Z,460
2019-05-29T04:54:58.199Z,584
2019-05-29T04:56:28.845Z,588
2019-05-29T04:57:59.214Z,600
2019-05-29T04:59:29.746Z,600
2019-05-29T05:02:30.781Z,612
2019-05-29T05:04:06.094Z,616
2019-05-29T05:05:31.768Z,616
2019-05-29T05:07:02.288Z,624
2019-05-29T05:08:32.783Z,628
2019-05-29T05:09:45.834Z,636
2019-05-29T05:10:58.967Z,640
2019-05-29T05:12:29.374Z,640
2019-05-29T05:13:59.896Z,644
2019-05-29T05:15:30.404Z,648
2019-05-29T05:17:00.909Z,652
2019-05-29T05:18:31.448Z,656
2019-05-29T05:20:02.020Z,656
2019-05-29T05:21:32.648Z,660
2019-05-29T05:23:03.089Z,664
2019-05-29T05:24:33.564Z,668
2019-05-29T05:26:59.523Z,676
2019-05-29T05:28:30.041Z,680
2019-05-29T05:30:00.555Z,684
2019-05-29T05:31:31.191Z,688
2019-05-29T05:33:01.577Z,692
2019-05-29T05:34:32.186Z,696
2019-05-29T05:36:02.714Z,700
2019-05-29T05:37:33.192Z,700
2019-05-29T05:39:07.205Z,708
2019-05-29T05:40:34.149Z,712
2019-05-29T05:41:47.155Z,716
2019-05-29T05:43:00.306Z,716
2019-05-29T05:46:01.350Z,720
2019-05-29T05:47:31.749Z,724
2019-05-29T05:49:02.321Z,724
2019-05-29T05:50:32.925Z,736
2019-05-29T05:52:03.361Z,736
2019-05-29T05:53:33.862Z,744
2019-05-29T05:55:04.428Z,752
2019-05-29T05:56:34.800Z,752
2019-05-29T05:57:47.834Z,760
2019-05-29T05:59:00.876Z,764
2019-05-29T06:00:31.509Z,768
2019-05-29T06:02:03.035Z,772
2019-05-29T06:03:32.440Z,772
2019-05-29T06:05:03.035Z,776
2019-05-29T06:06:33.475Z,780
2019-05-29T06:08:03.949Z,780
2019-05-29T06:11:05.002Z,788
2019-05-29T06:12:35.481Z,796
2019-05-29T06:13:48.583Z,796
2019-05-29T06:15:01.672Z,796
2019-05-29T06:16:32.189Z,804
2019-05-29T06:18:02.599Z,804
2019-05-29T06:19:33.285Z,808
2019-05-29T06:21:03.658Z,812
2019-05-29T06:22:34.288Z,816
2019-05-29T06:24:08.874Z,816
2019-05-29T06:25:35.336Z,824
2019-05-29T06:27:05.776Z,828
2019-05-29T06:28:36.365Z,824
2019-05-29T06:29:49.200Z,836
2019-05-29T06:31:02.245Z,836
2019-05-29T06:32:32.762Z,840
2019-05-29T06:34:03.400Z,836
2019-05-29T06:35:33.851Z,844
2019-05-29T06:37:04.272Z,844
2019-05-29T06:38:34.909Z,844
2019-05-29T06:40:05.383Z,856
2019-05-29T06:41:35.797Z,856
2019-05-29T06:43:06.318Z,860
2019-05-29T06:44:37.093Z,860
2019-05-29T06:47:04.331Z,864
2019-05-29T06:48:33.537Z,860
2019-05-29T06:50:03.907Z,860
2019-05-29T06:51:34.441Z,872
2019-05-29T06:54:35.607Z,872
2019-05-29T06:56:06.138Z,876
2019-05-29T06:57:36.575Z,884
2019-05-29T06:59:07.076Z,888
2019-05-29T07:00:37.513Z,892
2019-05-29T07:01:50.552Z,900
2019-05-29T07:03:03.610Z,912
2019-05-29T07:04:34.162Z,924
2019-05-29T07:06:04.732Z,928
2019-05-29T07:07:35.296Z,928
2019-05-29T07:09:05.605Z,928
2019-05-29T07:10:36.224Z,924
2019-05-29T07:12:06.763Z,932
2019-05-29T07:13:37.199Z,944
2019-05-29T07:15:07.650Z,956
2019-05-29T07:16:38.189Z,968
2019-05-29T07:17:51.286Z,984
2019-05-29T07:19:04.279Z,976
2019-05-29T07:20:34.738Z,980
2019-05-29T07:22:05.267Z,976
2019-05-29T07:23:35.804Z,976
2019-05-29T07:25:08.417Z,976
2019-05-29T07:26:36.896Z,984
2019-05-29T07:28:07.338Z,996
2019-05-29T07:29:37.987Z,1008
2019-05-29T07:31:08.469Z,1012
2019-05-29T07:32:38.862Z,1060
2019-05-29T07:33:51.870Z,1040
2019-05-29T07:35:04.921Z,1056
2019-05-29T07:36:35.586Z,1052
2019-05-29T07:38:05.982Z,1036
2019-05-29T07:39:36.505Z,1036
2019-05-29T07:41:07.134Z,1036
2019-05-29T07:42:37.497Z,1048
2019-05-29T07:44:07.991Z,1056
2019-05-29T07:45:38.615Z,1060
2019-05-29T07:47:09.037Z,1068
2019-05-29T07:48:39.533Z,1084
2019-05-29T07:49:52.562Z,1084
2019-05-29T07:51:05.579Z,1088
2019-05-29T07:52:36.205Z,1096
2019-05-29T07:54:06.811Z,1104
2019-05-29T07:55:37.244Z,1152
2019-05-29T07:57:07.719Z,16448
2019-05-29T07:58:38.131Z,38912
2019-05-29T08:00:08.828Z,41472
2019-05-29T08:01:39.188Z,44640
2019-05-29T08:03:09.675Z,44224
2019-05-29T08:04:40.318Z,30720
2019-05-29T08:07:06.670Z,8040
2019-05-29T08:08:36.885Z,7440
2019-05-29T08:10:07.429Z,6912
2019-05-29T08:13:08.305Z,6268
2019-05-29T08:14:38.895Z,5780
2019-05-29T08:16:09.497Z,5444
2019-05-29T08:17:39.878Z,5152
2019-05-29T08:19:10.442Z,4788
2019-05-29T08:20:40.991Z,4596
2019-05-29T08:21:54.061Z,4256
2019-05-29T08:23:06.999Z,4144
2019-05-29T08:24:37.526Z,4080
2019-05-29T08:26:08.059Z,3836
2019-05-29T08:27:41.446Z,3740
2019-05-29T08:30:39.599Z,3532
2019-05-29T08:32:10.086Z,3384
2019-05-29T08:33:40.753Z,3360
2019-05-29T08:35:11.220Z,3388
2019-05-29T08:36:41.548Z,3648
2019-05-29T08:37:54.757Z,3868
2019-05-29T08:39:07.687Z,3840
2019-05-29T08:40:38.104Z,3820
2019-05-29T08:42:08.835Z,3516
2019-05-29T08:43:39.152Z,3436
2019-05-29T08:45:09.773Z,3316
2019-05-29T08:46:40.244Z,3360
2019-05-29T08:48:10.802Z,3440
2019-05-29T08:49:41.233Z,3636
2019-05-29T08:51:11.703Z,3024
2019-05-29T08:52:42.210Z,2664
2019-05-29T08:53:55.252Z,2688
2019-05-29T08:55:14.601Z,2672
2019-05-29T08:56:38.799Z,2520
2019-05-29T08:58:09.413Z,2448
2019-05-29T08:59:39.924Z,2500
2019-05-29T09:01:10.346Z,2472
2019-05-29T09:04:11.367Z,2728
2019-05-29T09:05:41.997Z,2656
2019-05-29T09:07:12.503Z,2544
2019-05-29T09:08:43.006Z,2432
2019-05-29T09:09:56.071Z,2496
2019-05-29T09:11:09.000Z,2472
2019-05-29T09:12:39.517Z,2404
2019-05-29T09:14:10.146Z,2420
2019-05-29T09:15:40.660Z,2388
2019-05-29T09:17:11.073Z,2408
2019-05-29T09:18:41.559Z,2308
2019-05-29T09:20:12.147Z,2252
2019-05-29T09:21:42.563Z,2236
2019-05-29T09:23:13.233Z,2216
2019-05-29T09:24:43.618Z,2200
2019-05-29T09:27:09.677Z,2184
2019-05-29T09:28:40.208Z,2180
2019-05-29T09:30:10.830Z,2168
2019-05-29T09:31:41.214Z,2164
2019-05-29T09:33:11.816Z,2156
2019-05-29T09:34:42.336Z,2172
2019-05-29T09:36:12.773Z,2184
2019-05-29T09:37:43.271Z,2148
2019-05-29T09:39:13.825Z,2140
2019-05-29T09:40:44.287Z,2144
2019-05-29T09:41:57.441Z,2164
2019-05-29T09:43:10.447Z,2148
2019-05-29T09:44:40.870Z,2124
2019-05-29T09:46:11.506Z,2116
2019-05-29T09:49:12.525Z,2100
2019-05-29T09:50:42.945Z,2080
2019-05-29T09:52:13.547Z,2076
2019-05-29T09:53:43.966Z,2068
2019-05-29T09:55:14.587Z,2076
2019-05-29T09:56:45.091Z,2072
2019-05-29T09:57:58.038Z,2080
2019-05-29T09:59:11.150Z,2088
2019-05-29T10:00:41.557Z,2100
2019-05-29T10:02:12.182Z,2152
2019-05-29T10:03:43.316Z,2120
2019-05-29T10:05:13.142Z,2076
2019-05-29T10:06:43.680Z,2064
2019-05-29T10:08:14.122Z,2104
2019-05-29T10:09:44.665Z,2108
2019-05-29T10:11:15.214Z,2092
2019-05-29T10:12:45.671Z,2068
2019-05-29T10:13:58.724Z,2060
2019-05-29T10:15:11.771Z,2056
2019-05-29T10:16:42.339Z,2052
2019-05-29T10:18:12.777Z,2052
2019-05-29T10:19:43.377Z,2060
2019-05-29T10:21:13.815Z,2060
2019-05-29T10:22:44.303Z,2072
2019-05-29T10:24:14.835Z,2064
2019-05-29T10:25:45.510Z,2060
2019-05-29T10:27:15.958Z,2040
2019-05-29T10:28:46.400Z,2056
2019-05-29T10:29:59.583Z,2064
2019-05-29T10:31:12.541Z,2084
2019-05-29T10:32:43.088Z,2104
2019-05-29T10:35:44.136Z,2072
2019-05-29T10:37:14.632Z,2056
2019-05-29T10:38:45.177Z,2048
2019-05-29T10:40:15.649Z,2048
2019-05-29T10:43:16.690Z,2044
2019-05-29T10:44:47.178Z,2040
2019-05-29T10:47:13.222Z,2036
2019-05-29T10:48:43.762Z,2032
2019-05-29T10:50:14.373Z,2064
2019-05-29T10:51:44.813Z,2140
2019-05-29T10:53:15.298Z,2188
2019-05-29T10:54:45.871Z,2236
2019-05-29T10:56:21.265Z,2232
2019-05-29T10:57:47.439Z,2200
2019-05-29T10:59:17.375Z,2096
2019-05-29T11:00:48.023Z,2068
2019-05-29T11:02:00.899Z,2044
2019-05-29T11:04:44.485Z,2032
2019-05-29T11:07:45.464Z,2040
2019-05-29T11:09:16.147Z,2028
2019-05-29T11:10:46.512Z,2040
2019-05-29T11:12:16.917Z,2256
2019-05-29T11:13:51.912Z,2276
2019-05-29T11:15:18.061Z,2276
2019-05-29T11:16:48.469Z,2100
2019-05-29T11:18:01.479Z,2100
2019-05-29T11:19:14.503Z,2108
2019-05-29T11:20:45.001Z,2124
2019-05-29T11:22:15.529Z,2168
2019-05-29T11:23:46.040Z,2144
2019-05-29T11:25:16.698Z,2276
2019-05-29T11:26:47.082Z,2248
2019-05-29T11:28:17.585Z,2060
2019-05-29T11:29:48.111Z,2032
2019-05-29T11:31:18.653Z,2012
2019-05-29T11:32:49.142Z,2020
2019-05-29T11:34:02.156Z,2008
2019-05-29T11:35:15.195Z,1996
2019-05-29T11:36:45.875Z,2012
2019-05-29T11:38:16.213Z,2016
2019-05-29T11:39:46.719Z,2028
2019-05-29T11:41:17.553Z,2032
2019-05-29T11:42:47.743Z,2032
2019-05-29T11:44:19.505Z,2032
2019-05-29T11:45:48.790Z,2052
2019-05-29T11:47:19.297Z,2100
2019-05-29T11:48:49.828Z,2128
2019-05-29T11:50:02.938Z,2148
2019-05-29T11:51:15.965Z,2168
2019-05-29T11:52:46.384Z,2168
2019-05-29T11:54:16.903Z,2156
2019-05-29T11:55:47.425Z,2164
2019-05-29T11:57:17.998Z,2152
2019-05-29T11:58:48.536Z,2180
2019-05-29T12:00:18.970Z,2212
2019-05-29T12:01:49.485Z,2228
2019-05-29T12:03:19.965Z,2208
2019-05-29T12:04:50.483Z,2000
2019-05-29T12:07:20.989Z,2828
2019-05-29T12:08:47.071Z,3084
2019-05-29T12:10:17.650Z,2688
2019-05-29T12:11:48.115Z,2736
2019-05-29T12:13:18.599Z,2592
2019-05-29T12:14:49.130Z,3412
2019-05-29T12:16:19.623Z,2728
2019-05-29T12:17:52.468Z,2700
2019-05-29T12:19:20.651Z,2372
2019-05-29T12:20:51.237Z,2284
2019-05-29T12:22:04.218Z,2372
2019-05-29T12:23:17.252Z,2532
2019-05-29T12:24:47.761Z,2648
2019-05-29T12:26:18.392Z,2604
2019-05-29T12:27:51.127Z,2824
2019-05-29T12:29:19.400Z,2952
2019-05-29T12:30:49.836Z,2688
2019-05-29T12:32:20.388Z,2548
2019-05-29T12:33:50.814Z,2612
2019-05-29T12:35:21.492Z,2784
2019-05-29T12:36:51.861Z,2712
2019-05-29T12:38:04.877Z,3040
2019-05-29T12:39:17.911Z,3520
2019-05-29T12:40:48.430Z,3412
2019-05-29T12:42:18.940Z,3460
2019-05-29T12:43:49.448Z,3228
2019-05-29T12:45:19.998Z,2816
2019-05-29T12:46:50.478Z,2652
2019-05-29T12:48:21.050Z,2484
2019-05-29T12:49:51.587Z,2392
2019-05-29T12:51:22.045Z,2300
2019-05-29T12:52:52.675Z,2332
2019-05-29T12:54:05.593Z,2344
2019-05-29T12:55:18.677Z,2328
2019-05-29T12:56:51.858Z,2360
2019-05-29T12:58:19.641Z,2336
2019-05-29T12:59:50.127Z,2280
2019-05-29T13:01:20.642Z,2288
2019-05-29T13:02:51.287Z,2296
2019-05-29T13:04:21.668Z,2292
2019-05-29T13:05:52.233Z,2296
2019-05-29T13:07:23.635Z,2312
2019-05-29T13:08:53.260Z,2312
2019-05-29T13:10:06.379Z,2316
2019-05-29T13:11:19.285Z,2304
2019-05-29T13:12:49.826Z,2288
2019-05-29T13:14:21.357Z,2280
2019-05-29T13:15:51.055Z,2304
2019-05-29T13:18:51.844Z,2348
2019-05-29T13:20:22.577Z,2360
2019-05-29T13:21:52.995Z,2372
2019-05-29T13:23:23.374Z,2368
2019-05-29T13:24:57.592Z,2388
2019-05-29T13:27:19.957Z,2508
2019-05-29T13:28:50.531Z,2732
2019-05-29T13:30:21.104Z,2616
2019-05-29T13:31:51.593Z,2424
2019-05-29T13:33:22.047Z,2428
2019-05-29T13:34:52.726Z,2496
2019-05-29T13:36:23.043Z,2616
2019-05-29T13:37:53.586Z,2516
2019-05-29T13:39:24.088Z,2512
2019-05-29T13:40:54.607Z,2556
2019-05-29T13:42:07.627Z,2568
2019-05-29T13:43:20.746Z,2576
2019-05-29T13:44:51.291Z,2592
2019-05-29T13:46:21.689Z,2752
2019-05-29T13:47:52.239Z,2744
2019-05-29T13:49:22.684Z,2572
2019-05-29T13:50:53.346Z,2584
2019-05-29T13:52:23.826Z,2592
2019-05-29T13:53:54.274Z,2580
2019-05-29T13:55:24.734Z,2572
2019-05-29T13:56:55.291Z,2556
2019-05-29T13:58:08.377Z,2540
2019-05-29T13:59:21.316Z,2536
2019-05-29T14:00:51.912Z,2544
2019-05-29T14:02:22.481Z,2536
2019-05-29T14:03:52.922Z,2536
2019-05-29T14:05:23.493Z,2540
2019-05-29T14:06:53.924Z,2532
2019-05-29T14:08:24.473Z,2532
2019-05-29T14:09:54.898Z,2528
2019-05-29T14:11:25.437Z,2536
2019-05-29T14:12:55.945Z,2556
2019-05-29T14:14:09.057Z,2568
2019-05-29T14:15:23.035Z,2572
2019-05-29T14:16:52.585Z,2568
2019-05-29T14:18:23.039Z,2580
2019-05-29T14:19:53.527Z,2600
2019-05-29T14:21:24.045Z,2592
2019-05-29T14:22:54.560Z,2572
2019-05-29T14:24:25.072Z,2548
2019-05-29T14:25:55.665Z,2544
2019-05-29T14:27:26.098Z,2528
2019-05-29T14:28:56.608Z,2520
2019-05-29T14:30:09.676Z,2528
2019-05-29T14:31:22.659Z,2532
2019-05-29T14:32:53.222Z,2540
2019-05-29T14:34:23.691Z,2536
2019-05-29T14:35:54.216Z,2552
2019-05-29T14:37:24.705Z,2540
2019-05-29T14:38:55.239Z,2544
2019-05-29T14:40:25.747Z,2548
2019-05-29T14:41:56.260Z,2544
2019-05-29T14:43:26.759Z,2552
2019-05-29T14:44:57.462Z,2536
2019-05-29T14:47:23.341Z,2552
2019-05-29T14:48:53.852Z,2540
2019-05-29T14:50:24.367Z,2588
2019-05-29T14:51:54.878Z,2696
2019-05-29T14:53:25.405Z,2564
2019-05-29T14:54:55.973Z,2704
2019-05-29T14:56:26.520Z,2880
2019-05-29T14:57:56.958Z,2952
2019-05-29T14:59:27.681Z,2796
2019-05-29T15:00:58.073Z,2728
2019-05-29T15:02:11.096Z,2700
2019-05-29T15:03:24.026Z,2724
2019-05-29T15:04:54.630Z,2740
2019-05-29T15:06:25.036Z,2764
2019-05-29T15:07:55.551Z,2732
2019-05-29T15:09:26.056Z,2656
2019-05-29T15:10:56.771Z,2624
2019-05-29T15:12:27.072Z,2608
2019-05-29T15:13:57.602Z,2576
2019-05-29T15:15:28.132Z,2572
2019-05-29T15:16:58.652Z,2528
2019-05-29T15:18:11.669Z,2508
2019-05-29T15:19:24.704Z,2492
2019-05-29T15:20:55.274Z,2448
2019-05-29T15:22:25.716Z,2412
2019-05-29T15:23:56.214Z,2412
2019-05-29T15:25:29.164Z,2440
2019-05-29T15:26:57.319Z,2416
2019-05-29T15:28:27.812Z,2424
2019-05-29T15:29:58.336Z,2400
2019-05-29T15:31:28.793Z,2356
2019-05-29T15:32:59.316Z,2372
2019-05-29T15:34:12.344Z,2324
2019-05-29T15:35:25.368Z,2068
2019-05-29T15:36:55.988Z,2376
2019-05-29T15:38:26.607Z,2500
